createdAt,value
2017-08-10T00:00:24.850Z,22.47
2017-08-10T00:01:34.765Z,22.58
2017-08-10T00:02:44.397Z,22.58
2017-08-10T00:03:54.053Z,22.62
2017-08-10T00:05:03.967Z,22.55
2017-08-10T00:06:13.563Z,22.54
2017-08-10T00:07:23.480Z,22.47
2017-08-10T00:08:33.106Z,22.6
2017-08-10T00:09:43.118Z,22.55
2017-08-10T00:10:53.040Z,22.55
2017-08-10T00:12:03.274Z,22.61
2017-08-10T00:13:12.588Z,22.67
2017-08-10T00:14:22.812Z,22.58
2017-08-10T00:15:33.023Z,22.58
2017-08-10T00:16:43.256Z,22.57
2017-08-10T00:17:53.182Z,22.6
2017-08-10T00:19:02.792Z,22.57
2017-08-10T00:20:13.040Z,22.55
2017-08-10T00:21:22.455Z,22.61
2017-08-10T00:22:32.379Z,22.7
2017-08-10T00:23:42.307Z,22.54
2017-08-10T00:24:51.900Z,22.62
2017-08-10T00:26:01.814Z,22.67
2017-08-10T00:27:11.736Z,22.57
2017-08-10T00:28:21.647Z,22.62
2017-08-10T00:29:31.561Z,22.61
2017-08-10T00:30:41.787Z,22.67
2017-08-10T00:31:51.934Z,22.57
2017-08-10T00:33:02.300Z,22.61
2017-08-10T00:34:11.920Z,22.6
2017-08-10T00:35:21.833Z,22.51
2017-08-10T00:36:31.446Z,22.46
2017-08-10T00:37:41.060Z,22.36
2017-08-10T00:38:50.969Z,22.35
2017-08-10T00:40:00.886Z,22.3
2017-08-10T00:41:10.524Z,22.31
2017-08-10T00:42:20.439Z,22.31
2017-08-10T00:43:30.054Z,22.28
2017-08-10T00:44:40.295Z,22.18
2017-08-10T00:45:49.599Z,22.2
2017-08-10T00:46:59.214Z,22.22
2017-08-10T00:48:09.117Z,22.1
2017-08-10T00:49:18.739Z,22.17
2017-08-10T00:50:28.655Z,22.12
2017-08-10T00:51:38.883Z,21.86
2017-08-10T00:52:48.505Z,21.9
2017-08-10T00:53:58.126Z,21.98
2017-08-10T00:55:08.040Z,21.86
2017-08-10T00:56:18.411Z,21.94
2017-08-10T00:57:28.627Z,21.9
2017-08-10T00:58:38.539Z,21.86
2017-08-10T00:59:48.451Z,21.94
2017-08-10T01:00:58.679Z,21.92
2017-08-10T01:02:08.656Z,21.77
2017-08-10T01:03:18.865Z,21.88
2017-08-10T01:04:29.082Z,21.72
2017-08-10T01:05:39.313Z,21.61
2017-08-10T01:06:48.605Z,21.44
2017-08-10T01:07:58.627Z,21.38
2017-08-10T01:09:08.248Z,21.35
2017-08-10T01:10:18.175Z,21.35
2017-08-10T01:11:28.106Z,21.27
2017-08-10T01:12:38.325Z,21.38
2017-08-10T01:13:48.237Z,21.28
2017-08-10T01:14:58.157Z,21.21
2017-08-10T01:16:07.168Z,21.13
2017-08-10T01:17:17.088Z,21.04
2017-08-10T01:18:27.001Z,21.07
2017-08-10T01:19:37.022Z,21.09
2017-08-10T01:20:46.339Z,21.03
2017-08-10T01:21:56.262Z,20.95
2017-08-10T01:23:06.217Z,20.94
2017-08-10T01:24:16.142Z,20.8
2017-08-10T01:25:26.476Z,20.76
2017-08-10T01:26:36.077Z,20.79
2017-08-10T01:27:46.017Z,20.69
2017-08-10T01:28:56.234Z,20.73
2017-08-10T01:30:06.450Z,20.69
2017-08-10T01:31:16.513Z,20.72
2017-08-10T01:32:26.126Z,20.69
2017-08-10T01:33:36.342Z,20.7
2017-08-10T01:34:45.671Z,20.64
2017-08-10T01:35:55.596Z,20.76
2017-08-10T01:37:05.820Z,20.7
2017-08-10T01:38:15.136Z,20.67
2017-08-10T01:39:25.064Z,20.72
2017-08-10T01:40:35.305Z,20.67
2017-08-10T01:41:45.259Z,20.66
2017-08-10T01:42:55.539Z,20.57
2017-08-10T01:44:05.145Z,20.42
2017-08-10T01:45:15.367Z,20.41
2017-08-10T01:46:24.661Z,20.54
2017-08-10T01:47:33.669Z,20.39
2017-08-10T01:48:43.954Z,20.43
2017-08-10T01:49:54.170Z,20.48
2017-08-10T01:51:04.086Z,20.55
2017-08-10T01:52:14.005Z,20.47
2017-08-10T01:53:24.237Z,20.43
2017-08-10T01:54:34.647Z,20.39
2017-08-10T01:55:44.557Z,20.41
2017-08-10T01:56:54.786Z,20.31
2017-08-10T01:58:04.406Z,20.26
2017-08-10T01:59:14.347Z,20.2
2017-08-10T02:00:24.724Z,20.23
2017-08-10T02:01:34.929Z,20.2
2017-08-10T02:02:44.842Z,20.18
2017-08-10T02:03:54.753Z,20.1
2017-08-10T02:05:04.673Z,20.17
2017-08-10T02:06:14.293Z,20.16
2017-08-10T02:07:24.239Z,20.1
2017-08-10T02:08:34.160Z,20.1
2017-08-10T02:09:44.070Z,20.06
2017-08-10T02:10:53.373Z,20.03
2017-08-10T02:12:02.719Z,20.06
2017-08-10T02:13:12.620Z,19.95
2017-08-10T02:14:22.235Z,19.99
2017-08-10T02:15:32.481Z,19.99
2017-08-10T02:16:42.397Z,19.98
2017-08-10T02:17:51.763Z,19.95
2017-08-10T02:19:01.999Z,19.96
2017-08-10T02:20:12.242Z,20.01
2017-08-10T02:21:22.154Z,19.99
2017-08-10T02:22:31.463Z,20.05
2017-08-10T02:23:41.698Z,19.84
2017-08-10T02:24:51.294Z,19.94
2017-08-10T02:26:00.909Z,19.91
2017-08-10T02:27:09.891Z,19.91
2017-08-10T02:28:20.110Z,20.02
2017-08-10T02:29:29.405Z,20.1
2017-08-10T02:30:39.645Z,20.1
2017-08-10T02:31:49.564Z,20.16
2017-08-10T02:32:59.790Z,20.17
2017-08-10T02:34:09.708Z,20.2
2017-08-10T02:35:19.986Z,20.24
2017-08-10T02:36:30.228Z,20.17
2017-08-10T02:37:40.152Z,20.26
2017-08-10T02:38:50.361Z,20.29
2017-08-10T02:40:00.292Z,20.33
2017-08-10T02:41:10.361Z,20.42
2017-08-10T02:42:20.592Z,20.35
2017-08-10T02:43:30.513Z,20.36
2017-08-10T02:44:40.118Z,20.2
2017-08-10T02:45:50.026Z,20.2
2017-08-10T02:47:00.068Z,20.17
2017-08-10T02:48:09.369Z,20.18
2017-08-10T02:49:18.971Z,20.26
2017-08-10T02:50:28.279Z,20.24
2017-08-10T02:51:37.882Z,20.28
2017-08-10T02:52:48.252Z,20.26
2017-08-10T02:53:57.873Z,20.28
2017-08-10T02:55:07.500Z,20.28
2017-08-10T02:56:17.421Z,20.28
2017-08-10T02:57:27.048Z,20.28
2017-08-10T02:58:37.119Z,20.29
2017-08-10T02:59:47.036Z,20.38
2017-08-10T03:00:56.974Z,20.39
2017-08-10T03:02:06.909Z,20.41
2017-08-10T03:03:16.852Z,20.41
2017-08-10T03:04:26.530Z,20.58
2017-08-10T03:05:36.149Z,20.66
2017-08-10T03:06:46.391Z,20.67
2017-08-10T03:07:56.014Z,20.67
2017-08-10T03:09:05.622Z,20.66
2017-08-10T03:10:15.529Z,20.79
2017-08-10T03:11:25.434Z,20.74
2017-08-10T03:12:35.657Z,20.89
2017-08-10T03:13:45.584Z,20.84
2017-08-10T03:14:55.520Z,20.94
2017-08-10T03:16:05.477Z,20.92
2017-08-10T03:17:15.697Z,20.95
2017-08-10T03:18:25.303Z,21.03
2017-08-10T03:19:34.920Z,21.03
2017-08-10T03:20:44.551Z,21.09
2017-08-10T03:21:54.460Z,21.1
2017-08-10T03:23:04.374Z,21.16
2017-08-10T03:24:13.979Z,21.25
2017-08-10T03:25:23.906Z,21.28
2017-08-10T03:26:33.505Z,21.22
2017-08-10T03:27:44.021Z,21.34
2017-08-10T03:28:53.934Z,21.34
2017-08-10T03:30:03.870Z,21.27
2017-08-10T03:31:13.483Z,21.37
2017-08-10T03:32:23.699Z,21.4
2017-08-10T03:33:33.927Z,21.47
2017-08-10T03:34:44.156Z,21.43
2017-08-10T03:35:54.081Z,21.46
2017-08-10T03:37:03.994Z,21.49
2017-08-10T03:38:14.212Z,21.58
2017-08-10T03:39:24.427Z,21.49
2017-08-10T03:40:34.642Z,21.58
2017-08-10T03:41:44.894Z,21.59
2017-08-10T03:42:54.830Z,21.49
2017-08-10T03:44:04.776Z,21.52
2017-08-10T03:45:15.101Z,21.56
2017-08-10T03:46:24.716Z,21.56
2017-08-10T03:47:35.310Z,21.58
2017-08-10T03:48:44.298Z,21.54
2017-08-10T03:49:54.541Z,21.58
2017-08-10T03:51:04.457Z,21.54
2017-08-10T03:52:14.075Z,21.49
2017-08-10T03:53:23.986Z,21.5
2017-08-10T03:54:33.592Z,21.5
2017-08-10T03:55:43.564Z,21.56
2017-08-10T03:56:53.650Z,21.59
2017-08-10T03:58:03.567Z,21.58
2017-08-10T03:59:13.171Z,21.53
2017-08-10T04:00:23.396Z,21.49
2017-08-10T04:01:32.699Z,21.53
2017-08-10T04:02:43.233Z,21.53
2017-08-10T04:03:53.472Z,21.56
2017-08-10T04:05:03.126Z,21.58
2017-08-10T04:06:13.106Z,21.58
2017-08-10T04:07:23.333Z,21.58
2017-08-10T04:08:33.725Z,21.58
2017-08-10T04:09:43.634Z,21.54
2017-08-10T04:10:53.250Z,21.59
2017-08-10T04:12:03.178Z,21.61
2017-08-10T04:13:13.404Z,21.62
2017-08-10T04:14:23.419Z,21.62
2017-08-10T04:15:33.333Z,21.64
2017-08-10T04:16:43.548Z,21.61
2017-08-10T04:17:53.456Z,21.64
2017-08-10T04:19:03.067Z,21.64
2017-08-10T04:20:12.974Z,21.67
2017-08-10T04:21:22.886Z,21.65
2017-08-10T04:22:33.100Z,21.62
2017-08-10T04:23:42.725Z,21.62
2017-08-10T04:24:52.945Z,21.69
2017-08-10T04:26:03.171Z,21.65
2017-08-10T04:27:13.112Z,21.69
2017-08-10T04:28:22.722Z,21.62
2017-08-10T04:29:32.942Z,21.64
2017-08-10T04:30:42.855Z,21.69
2017-08-10T04:31:53.218Z,21.68
2017-08-10T04:33:03.439Z,21.71
2017-08-10T04:34:13.658Z,21.64
2017-08-10T04:35:22.985Z,21.62
2017-08-10T04:36:32.886Z,21.65
2017-08-10T04:37:43.271Z,21.65
2017-08-10T04:38:53.179Z,21.67
2017-08-10T04:40:03.394Z,21.62
2017-08-10T04:41:13.011Z,21.62
2017-08-10T04:42:22.621Z,21.61
2017-08-10T04:43:32.691Z,21.61
2017-08-10T04:44:42.621Z,21.61
2017-08-10T04:45:52.227Z,21.53
2017-08-10T04:47:01.846Z,21.54
2017-08-10T04:48:11.157Z,21.53
2017-08-10T04:49:21.217Z,21.56
2017-08-10T04:50:31.444Z,21.62
2017-08-10T04:51:41.385Z,21.52
2017-08-10T04:52:50.997Z,21.53
2017-08-10T04:54:01.238Z,21.56
2017-08-10T04:55:10.639Z,21.5
2017-08-10T04:56:20.556Z,21.56
2017-08-10T04:57:30.163Z,21.56
2017-08-10T04:58:40.382Z,21.68
2017-08-10T04:59:50.290Z,21.67
2017-08-10T05:01:00.361Z,21.82
2017-08-10T05:02:10.593Z,21.86
2017-08-10T05:03:20.502Z,21.92
2017-08-10T05:04:30.747Z,21.99
2017-08-10T05:05:41.000Z,21.94
2017-08-10T05:06:51.018Z,22.07
2017-08-10T05:08:00.633Z,22.1
2017-08-10T05:09:09.944Z,22.18
2017-08-10T05:10:19.547Z,22.25
2017-08-10T05:11:29.164Z,22.27
2017-08-10T05:12:38.841Z,22.37
2017-08-10T05:13:48.761Z,22.37
2017-08-10T05:14:58.680Z,22.49
2017-08-10T05:16:08.598Z,22.49
2017-08-10T05:17:17.950Z,22.58
2017-08-10T05:18:28.335Z,22.58
2017-08-10T05:19:38.544Z,22.62
2017-08-10T05:20:48.773Z,22.55
2017-08-10T05:21:58.713Z,22.64
2017-08-10T05:23:08.341Z,22.73
2017-08-10T05:24:18.960Z,22.77
2017-08-10T05:25:28.886Z,22.77
2017-08-10T05:26:38.812Z,22.8
2017-08-10T05:27:48.123Z,22.91
2017-08-10T05:28:58.352Z,22.95
2017-08-10T05:30:08.266Z,22.94
2017-08-10T05:31:18.497Z,22.95
2017-08-10T05:32:28.105Z,23
2017-08-10T05:33:38.009Z,23.05
2017-08-10T05:34:47.933Z,23.1
2017-08-10T05:35:57.548Z,23.07
2017-08-10T05:37:07.487Z,23.13
2017-08-10T05:38:17.413Z,23.22
2017-08-10T05:39:27.640Z,23.19
2017-08-10T05:40:37.866Z,23.25
2017-08-10T05:41:47.937Z,23.19
2017-08-10T05:42:57.298Z,23.28
2017-08-10T05:44:06.919Z,23.23
2017-08-10T05:45:16.525Z,23.32
2017-08-10T05:46:26.557Z,23.35
2017-08-10T05:47:36.853Z,23.31
2017-08-10T05:48:46.463Z,23.35
2017-08-10T05:49:56.083Z,23.35
2017-08-10T05:51:06.301Z,23.36
2017-08-10T05:52:15.907Z,23.38
2017-08-10T05:53:25.828Z,23.46
2017-08-10T05:54:35.753Z,23.43
2017-08-10T05:55:45.974Z,23.47
2017-08-10T05:56:55.573Z,23.46
2017-08-10T05:58:05.795Z,23.48
2017-08-10T05:59:15.707Z,23.46
2017-08-10T06:00:25.310Z,23.51
2017-08-10T06:01:35.528Z,23.51
2017-08-10T06:02:45.445Z,23.53
2017-08-10T06:03:55.354Z,23.54
2017-08-10T06:05:05.259Z,23.53
2017-08-10T06:06:14.861Z,23.53
2017-08-10T06:07:25.092Z,23.51
2017-08-10T06:08:34.701Z,23.51
2017-08-10T06:09:44.939Z,23.58
2017-08-10T06:10:54.912Z,23.51
2017-08-10T06:12:04.533Z,23.6
2017-08-10T06:13:14.466Z,23.65
2017-08-10T06:14:23.776Z,23.58
2017-08-10T06:15:33.990Z,23.68
2017-08-10T06:16:43.973Z,23.6
2017-08-10T06:17:54.194Z,23.66
2017-08-10T06:19:04.119Z,23.61
2017-08-10T06:20:13.425Z,23.68
2017-08-10T06:21:23.033Z,23.63
2017-08-10T06:22:32.968Z,23.6
2017-08-10T06:23:43.215Z,23.68
2017-08-10T06:24:52.842Z,23.76
2017-08-10T06:26:02.444Z,23.69
2017-08-10T06:27:12.080Z,23.63
2017-08-10T06:28:22.100Z,23.65
2017-08-10T06:29:32.393Z,23.73
2017-08-10T06:30:42.007Z,23.7
2017-08-10T06:31:51.307Z,23.79
2017-08-10T06:33:01.240Z,23.78
2017-08-10T06:34:11.139Z,23.78
2017-08-10T06:35:21.401Z,23.84
2017-08-10T06:36:31.329Z,23.79
2017-08-10T06:37:41.276Z,23.8
2017-08-10T06:38:50.901Z,23.8
2017-08-10T06:40:01.197Z,23.8
2017-08-10T06:41:11.127Z,23.85
2017-08-10T06:42:21.346Z,23.83
2017-08-10T06:43:31.574Z,23.76
2017-08-10T06:44:41.195Z,23.87
2017-08-10T06:45:51.591Z,23.88
2017-08-10T06:47:01.819Z,23.76
2017-08-10T06:48:12.065Z,23.8
2017-08-10T06:49:22.005Z,23.9
2017-08-10T06:50:31.976Z,23.94
2017-08-10T06:51:41.689Z,23.87
2017-08-10T06:52:51.311Z,23.9
2017-08-10T06:54:01.540Z,23.88
2017-08-10T06:55:11.156Z,23.84
2017-08-10T06:56:21.389Z,23.88
2017-08-10T06:57:31.531Z,23.95
2017-08-10T06:58:41.457Z,23.91
2017-08-10T06:59:51.379Z,23.88
2017-08-10T07:01:01.003Z,23.87
2017-08-10T07:02:10.928Z,23.93
2017-08-10T07:03:21.342Z,23.88
2017-08-10T07:04:31.274Z,23.93
2017-08-10T07:05:41.196Z,23.93
2017-08-10T07:06:51.439Z,23.87
2017-08-10T07:08:01.684Z,23.9
2017-08-10T07:09:11.623Z,23.88
2017-08-10T07:10:21.864Z,23.88
2017-08-10T07:11:31.796Z,23.91
2017-08-10T07:12:42.051Z,23.9
2017-08-10T07:13:51.991Z,23.9
2017-08-10T07:15:02.022Z,23.91
2017-08-10T07:16:12.287Z,23.95
2017-08-10T07:17:21.924Z,23.97
2017-08-10T07:18:32.157Z,23.98
2017-08-10T07:19:42.385Z,23.93
2017-08-10T07:20:51.703Z,23.91
2017-08-10T07:22:01.948Z,24.02
2017-08-10T07:23:11.877Z,23.9
2017-08-10T07:24:22.120Z,24
2017-08-10T07:25:31.762Z,24.05
2017-08-10T07:26:41.681Z,23.94
2017-08-10T07:27:51.612Z,24.08
2017-08-10T07:29:01.288Z,24.05
2017-08-10T07:30:11.226Z,24.05
2017-08-10T07:31:20.552Z,24.06
2017-08-10T07:32:30.780Z,24.05
2017-08-10T07:33:41.004Z,24.06
2017-08-10T07:34:51.268Z,24.03
2017-08-10T07:36:01.501Z,24.06
2017-08-10T07:37:11.445Z,24.08
2017-08-10T07:38:21.783Z,24.09
2017-08-10T07:39:32.052Z,24.08
2017-08-10T07:40:41.711Z,24.03
2017-08-10T07:41:51.630Z,24.09
2017-08-10T07:43:01.566Z,24.05
2017-08-10T07:44:11.344Z,24.12
2017-08-10T07:45:20.664Z,24.06
2017-08-10T07:46:30.591Z,24.18
2017-08-10T07:47:40.541Z,24.1
2017-08-10T07:48:50.786Z,24.08
2017-08-10T07:50:00.753Z,24.06
2017-08-10T07:51:09.768Z,24.15
2017-08-10T07:52:19.705Z,24.06
2017-08-10T07:53:29.332Z,24.13
2017-08-10T07:54:39.260Z,24.12
2017-08-10T07:55:49.504Z,24.13
2017-08-10T07:56:59.754Z,24.1
2017-08-10T07:58:09.391Z,24.03
2017-08-10T07:59:19.633Z,24.16
2017-08-10T08:00:29.277Z,24.2
2017-08-10T08:01:39.196Z,24.09
2017-08-10T08:02:49.417Z,24.16
2017-08-10T08:03:59.048Z,24.08
2017-08-10T08:05:08.972Z,24.09
2017-08-10T08:06:18.921Z,24.16
2017-08-10T08:07:28.234Z,24.21
2017-08-10T08:08:38.165Z,24.18
2017-08-10T08:09:47.788Z,24.24
2017-08-10T08:10:57.720Z,24.15
2017-08-10T08:12:07.667Z,24.21
2017-08-10T08:13:17.595Z,24.1
2017-08-10T08:14:27.530Z,24.15
2017-08-10T08:15:37.510Z,24.28
2017-08-10T08:16:47.464Z,24.12
2017-08-10T08:17:57.441Z,24.2
2017-08-10T08:19:07.519Z,24.24
2017-08-10T08:20:17.478Z,24.28
2017-08-10T08:21:27.094Z,24.25
2017-08-10T08:22:37.031Z,24.32
2017-08-10T08:23:47.266Z,24.27
2017-08-10T08:24:57.364Z,24.25
2017-08-10T08:26:06.997Z,24.3
2017-08-10T08:27:17.242Z,24.27
2017-08-10T08:28:26.864Z,24.3
2017-08-10T08:29:36.509Z,24.32
2017-08-10T08:30:47.063Z,24.31
2017-08-10T08:31:56.393Z,24.22
2017-08-10T08:33:06.019Z,24.34
2017-08-10T08:34:16.255Z,24.28
2017-08-10T08:35:26.181Z,24.35
2017-08-10T08:36:36.405Z,24.31
2017-08-10T08:37:46.035Z,24.31
2017-08-10T08:38:56.278Z,24.3
2017-08-10T08:40:06.216Z,24.27
2017-08-10T08:41:16.153Z,24.34
2017-08-10T08:42:26.541Z,24.34
2017-08-10T08:43:36.468Z,24.32
2017-08-10T08:44:46.715Z,24.46
2017-08-10T08:45:56.666Z,24.4
2017-08-10T08:47:06.914Z,24.46
2017-08-10T08:48:17.151Z,24.31
2017-08-10T08:49:27.101Z,24.42
2017-08-10T08:50:36.427Z,24.43
2017-08-10T08:51:46.349Z,24.4
2017-08-10T08:52:56.594Z,24.31
2017-08-10T08:54:06.381Z,24.3
2017-08-10T08:55:16.342Z,24.28
2017-08-10T08:56:26.260Z,24.37
2017-08-10T08:57:36.504Z,24.4
2017-08-10T08:58:46.432Z,24.32
2017-08-10T08:59:56.680Z,24.34
2017-08-10T09:01:06.617Z,24.39
2017-08-10T09:02:15.643Z,24.34
2017-08-10T09:03:25.881Z,24.39
2017-08-10T09:04:35.821Z,24.27
2017-08-10T09:05:45.529Z,24.46
2017-08-10T09:06:55.771Z,24.43
2017-08-10T09:08:06.008Z,24.43
2017-08-10T09:09:15.626Z,24.34
2017-08-10T09:10:24.938Z,24.37
2017-08-10T09:11:34.946Z,24.4
2017-08-10T09:12:45.177Z,24.32
2017-08-10T09:13:55.408Z,24.46
2017-08-10T09:15:05.659Z,24.39
2017-08-10T09:16:15.913Z,24.31
2017-08-10T09:17:25.378Z,24.45
2017-08-10T09:18:35.644Z,24.32
2017-08-10T09:19:45.580Z,24.35
2017-08-10T09:20:55.814Z,24.42
2017-08-10T09:22:05.455Z,24.32
2017-08-10T09:23:15.715Z,24.31
2017-08-10T09:24:25.357Z,24.27
2017-08-10T09:25:35.607Z,24.42
2017-08-10T09:26:44.916Z,24.45
2017-08-10T09:27:54.542Z,24.39
2017-08-10T09:29:03.542Z,24.37
2017-08-10T09:30:13.166Z,24.31
2017-08-10T09:31:23.094Z,24.34
2017-08-10T09:32:33.338Z,24.37
2017-08-10T09:33:43.276Z,24.42
2017-08-10T09:34:53.188Z,24.35
2017-08-10T09:36:03.421Z,24.4
2017-08-10T09:37:13.707Z,24.37
2017-08-10T09:38:23.960Z,24.32
2017-08-10T09:39:33.277Z,24.34
2017-08-10T09:40:43.501Z,24.46
2017-08-10T09:41:53.434Z,24.32
2017-08-10T09:43:03.368Z,24.32
2017-08-10T09:44:13.287Z,24.42
2017-08-10T09:45:22.904Z,24.31
2017-08-10T09:46:32.702Z,24.42
2017-08-10T09:47:42.931Z,24.45
2017-08-10T09:48:52.888Z,24.4
2017-08-10T09:50:02.812Z,24.31
2017-08-10T09:51:12.430Z,24.46
2017-08-10T09:52:22.209Z,24.45
2017-08-10T09:53:32.468Z,24.39
2017-08-10T09:54:42.102Z,24.43
2017-08-10T09:55:51.412Z,24.43
2017-08-10T09:57:01.340Z,24.49
2017-08-10T09:58:11.010Z,24.52
2017-08-10T09:59:20.935Z,24.42
2017-08-10T10:00:30.866Z,24.42
2017-08-10T10:01:41.108Z,24.43
2017-08-10T10:02:51.356Z,24.45
2017-08-10T10:04:01.108Z,24.46
2017-08-10T10:05:11.066Z,24.49
2017-08-10T10:06:20.697Z,24.46
2017-08-10T10:07:30.629Z,24.45
2017-08-10T10:08:39.942Z,24.46
2017-08-10T10:09:49.986Z,24.46
2017-08-10T10:10:59.906Z,24.43
2017-08-10T10:12:09.847Z,24.49
2017-08-10T10:13:19.793Z,24.47
2017-08-10T10:14:29.759Z,24.46
2017-08-10T10:15:39.778Z,24.42
2017-08-10T10:16:49.698Z,24.46
2017-08-10T10:17:59.934Z,24.43
2017-08-10T10:19:09.878Z,24.46
2017-08-10T10:20:19.803Z,24.47
2017-08-10T10:21:29.784Z,24.46
2017-08-10T10:22:39.096Z,24.47
2017-08-10T10:23:49.063Z,24.43
2017-08-10T10:24:59.310Z,24.43
2017-08-10T10:26:09.241Z,24.5
2017-08-10T10:27:19.338Z,24.47
2017-08-10T10:28:29.308Z,24.47
2017-08-10T10:29:39.551Z,24.5
2017-08-10T10:30:49.162Z,24.52
2017-08-10T10:31:59.098Z,24.49
2017-08-10T10:33:08.723Z,24.52
2017-08-10T10:34:18.956Z,24.45
2017-08-10T10:35:28.878Z,24.5
2017-08-10T10:36:38.804Z,24.49
2017-08-10T10:37:48.732Z,24.53
2017-08-10T10:38:59.119Z,24.52
2017-08-10T10:40:09.415Z,24.49
2017-08-10T10:41:19.648Z,24.52
2017-08-10T10:42:29.892Z,24.5
2017-08-10T10:43:39.829Z,24.55
2017-08-10T10:44:49.257Z,24.55
2017-08-10T10:45:58.884Z,24.5
2017-08-10T10:47:08.797Z,24.52
2017-08-10T10:48:18.731Z,24.5
2017-08-10T10:49:28.352Z,24.52
2017-08-10T10:50:38.049Z,24.5
2017-08-10T10:51:47.973Z,24.53
2017-08-10T10:52:57.601Z,24.46
2017-08-10T10:54:06.924Z,24.46
2017-08-10T10:55:16.226Z,24.49
2017-08-10T10:56:25.838Z,24.47
2017-08-10T10:57:36.082Z,24.52
2017-08-10T10:58:45.705Z,24.49
2017-08-10T10:59:55.640Z,24.47
2017-08-10T11:01:05.570Z,24.47
2017-08-10T11:02:15.191Z,24.47
2017-08-10T11:03:25.106Z,24.49
2017-08-10T11:04:35.037Z,24.45
2017-08-10T11:05:44.966Z,24.53
2017-08-10T11:06:54.900Z,24.43
2017-08-10T11:08:05.134Z,24.39
2017-08-10T11:09:15.048Z,24.46
2017-08-10T11:10:24.972Z,24.47
2017-08-10T11:11:34.901Z,24.47
2017-08-10T11:12:44.830Z,24.53
2017-08-10T11:13:54.933Z,24.45
2017-08-10T11:15:04.553Z,24.5
2017-08-10T11:16:14.784Z,24.45
2017-08-10T11:17:24.416Z,24.53
2017-08-10T11:18:34.021Z,24.52
2017-08-10T11:19:43.648Z,24.46
2017-08-10T11:20:53.588Z,24.46
2017-08-10T11:22:03.212Z,24.42
2017-08-10T11:23:12.211Z,24.45
2017-08-10T11:24:22.153Z,24.42
2017-08-10T11:25:32.491Z,24.45
2017-08-10T11:26:42.418Z,24.45
2017-08-10T11:27:52.364Z,24.47
2017-08-10T11:29:02.297Z,24.43
2017-08-10T11:30:12.536Z,24.46
2017-08-10T11:31:21.988Z,24.47
2017-08-10T11:32:31.912Z,24.4
2017-08-10T11:33:42.142Z,24.46
2017-08-10T11:34:52.069Z,24.49
2017-08-10T11:36:01.699Z,24.49
2017-08-10T11:37:11.950Z,24.5
2017-08-10T11:38:22.257Z,24.47
2017-08-10T11:39:31.874Z,24.43
2017-08-10T11:40:41.504Z,24.47
2017-08-10T11:41:51.431Z,24.46
2017-08-10T11:43:01.714Z,24.45
2017-08-10T11:44:11.674Z,24.46
2017-08-10T11:45:21.900Z,24.46
2017-08-10T11:46:31.209Z,24.47
2017-08-10T11:47:40.510Z,24.46
2017-08-10T11:48:50.166Z,24.49
2017-08-10T11:50:00.075Z,24.45
2017-08-10T11:51:09.698Z,24.47
2017-08-10T11:52:19.932Z,24.45
2017-08-10T11:53:29.920Z,24.45
2017-08-10T11:54:40.151Z,24.42
2017-08-10T11:55:50.081Z,24.52
2017-08-10T11:57:00.034Z,24.47
2017-08-10T11:58:09.651Z,24.52
2017-08-10T11:59:19.590Z,24.52
2017-08-10T12:00:29.799Z,24.5
2017-08-10T12:01:40.043Z,24.62
2017-08-10T12:02:49.358Z,24.53
2017-08-10T12:03:59.003Z,24.58
2017-08-10T12:05:08.942Z,24.6
2017-08-10T12:06:19.186Z,24.6
2017-08-10T12:07:29.417Z,24.57
2017-08-10T12:08:39.344Z,24.58
2017-08-10T12:09:48.980Z,24.58
2017-08-10T12:10:59.203Z,24.62
2017-08-10T12:12:09.526Z,24.62
2017-08-10T12:13:19.770Z,24.53
2017-08-10T12:14:29.707Z,24.58
2017-08-10T12:15:39.634Z,24.64
2017-08-10T12:16:49.555Z,24.58
2017-08-10T12:17:59.487Z,24.61
2017-08-10T12:19:09.736Z,24.64
2017-08-10T12:20:19.988Z,24.57
2017-08-10T12:21:30.218Z,24.65
2017-08-10T12:22:40.137Z,24.65
2017-08-10T12:23:49.751Z,24.68
2017-08-10T12:24:59.972Z,24.62
2017-08-10T12:26:10.206Z,24.57
2017-08-10T12:27:20.130Z,24.6
2017-08-10T12:28:29.445Z,24.57
2017-08-10T12:29:39.046Z,24.62
2017-08-10T12:30:48.687Z,24.53
2017-08-10T12:31:58.602Z,24.57
2017-08-10T12:33:08.550Z,24.64
2017-08-10T12:34:18.515Z,24.64
2017-08-10T12:35:28.790Z,24.65
2017-08-10T12:36:38.722Z,24.62
2017-08-10T12:37:48.047Z,24.65
2017-08-10T12:38:57.975Z,24.62
2017-08-10T12:40:08.200Z,24.62
2017-08-10T12:41:18.426Z,24.68
2017-08-10T12:42:28.659Z,24.62
2017-08-10T12:43:38.589Z,24.65
2017-08-10T12:44:48.833Z,24.65
2017-08-10T12:45:58.759Z,24.68
2017-08-10T12:47:08.227Z,24.64
2017-08-10T12:48:18.475Z,24.65
2017-08-10T12:49:27.779Z,24.71
2017-08-10T12:50:38.044Z,24.65
2017-08-10T12:51:47.688Z,24.64
2017-08-10T12:52:57.609Z,24.64
2017-08-10T12:54:07.539Z,24.65
2017-08-10T12:55:17.802Z,24.65
2017-08-10T12:56:27.486Z,24.65
2017-08-10T12:57:37.733Z,24.71
2017-08-10T12:58:48.015Z,24.64
2017-08-10T12:59:57.646Z,24.62
2017-08-10T13:01:07.273Z,24.71
2017-08-10T13:02:17.507Z,24.64
2017-08-10T13:03:27.747Z,24.6
2017-08-10T13:04:37.065Z,24.64
2017-08-10T13:05:46.066Z,24.62
2017-08-10T13:06:55.721Z,24.65
2017-08-10T13:08:05.378Z,24.62
2017-08-10T13:09:15.014Z,24.64
2017-08-10T13:10:25.275Z,24.65
2017-08-10T13:11:35.244Z,24.6
2017-08-10T13:12:44.866Z,24.65
2017-08-10T13:13:54.496Z,24.68
2017-08-10T13:15:04.439Z,24.64
2017-08-10T13:16:13.847Z,24.58
2017-08-10T13:17:23.491Z,24.6
2017-08-10T13:18:33.742Z,24.64
2017-08-10T13:19:43.379Z,24.57
2017-08-10T13:20:52.702Z,24.6
2017-08-10T13:22:02.164Z,24.61
2017-08-10T13:23:11.825Z,24.61
2017-08-10T13:24:21.483Z,24.61
2017-08-10T13:25:31.713Z,24.6
2017-08-10T13:26:41.667Z,24.58
2017-08-10T13:27:52.429Z,24.6
2017-08-10T13:29:02.408Z,24.52
2017-08-10T13:30:12.628Z,24.61
2017-08-10T13:31:22.547Z,24.57
2017-08-10T13:32:31.858Z,24.6
2017-08-10T13:33:41.890Z,24.6
2017-08-10T13:34:51.508Z,24.62
2017-08-10T13:36:01.131Z,24.57
2017-08-10T13:37:11.055Z,24.58
2017-08-10T13:38:21.284Z,24.67
2017-08-10T13:39:31.047Z,24.57
2017-08-10T13:40:41.009Z,24.58
2017-08-10T13:41:50.615Z,24.67
2017-08-10T13:43:00.543Z,24.55
2017-08-10T13:44:10.774Z,24.53
2017-08-10T13:45:20.965Z,24.53
2017-08-10T13:46:30.936Z,24.69
2017-08-10T13:47:41.170Z,24.58
2017-08-10T13:48:51.126Z,24.53
2017-08-10T13:50:01.368Z,24.53
2017-08-10T13:51:11.336Z,24.6
2017-08-10T13:52:20.661Z,24.58
2017-08-10T13:53:30.658Z,24.55
2017-08-10T13:54:40.613Z,24.55
2017-08-10T13:55:50.864Z,24.57
2017-08-10T13:57:00.644Z,24.57
2017-08-10T13:58:09.948Z,24.64
2017-08-10T13:59:19.319Z,24.52
2017-08-10T14:00:29.549Z,24.57
2017-08-10T14:01:39.483Z,24.52
2017-08-10T14:02:49.108Z,24.6
2017-08-10T14:03:58.727Z,24.61
2017-08-10T14:05:08.054Z,24.55
2017-08-10T14:06:17.991Z,24.55
2017-08-10T14:07:27.026Z,24.5
2017-08-10T14:08:37.360Z,24.57
2017-08-10T14:09:47.607Z,24.55
2017-08-10T14:10:57.853Z,24.6
2017-08-10T14:12:07.477Z,24.58
2017-08-10T14:13:17.405Z,24.57
2017-08-10T14:14:27.941Z,24.52
2017-08-10T14:15:37.866Z,24.52
2017-08-10T14:16:47.784Z,24.57
2017-08-10T14:17:57.710Z,24.5
2017-08-10T14:19:07.343Z,24.52
2017-08-10T14:20:16.960Z,24.5
2017-08-10T14:21:26.581Z,24.58
2017-08-10T14:22:36.837Z,24.53
2017-08-10T14:23:45.846Z,24.53
2017-08-10T14:24:55.773Z,24.57
2017-08-10T14:26:05.867Z,24.55
2017-08-10T14:27:15.803Z,24.53
2017-08-10T14:28:25.741Z,24.53
2017-08-10T14:29:35.986Z,24.52
2017-08-10T14:30:45.938Z,24.53
2017-08-10T14:31:56.186Z,24.57
2017-08-10T14:33:05.522Z,24.57
2017-08-10T14:34:15.178Z,24.58
2017-08-10T14:35:24.802Z,24.6
2017-08-10T14:36:34.731Z,24.62
2017-08-10T14:37:44.446Z,24.53
2017-08-10T14:38:54.372Z,24.57
2017-08-10T14:40:03.985Z,24.53
2017-08-10T14:41:13.927Z,24.55
2017-08-10T14:42:23.869Z,24.57
2017-08-10T14:43:33.692Z,24.5
2017-08-10T14:44:43.620Z,24.52
2017-08-10T14:45:53.868Z,24.52
2017-08-10T14:47:04.114Z,24.5
2017-08-10T14:48:13.749Z,24.53
2017-08-10T14:49:23.685Z,24.49
2017-08-10T14:50:33.322Z,24.57
2017-08-10T14:51:42.650Z,24.52
2017-08-10T14:52:51.970Z,24.42
2017-08-10T14:54:02.215Z,24.52
2017-08-10T14:55:12.746Z,24.49
2017-08-10T14:56:22.374Z,24.47
2017-08-10T14:57:32.299Z,24.47
2017-08-10T14:58:42.222Z,24.45
2017-08-10T14:59:52.165Z,24.46
2017-08-10T15:01:02.164Z,24.42
2017-08-10T15:02:12.407Z,24.49
2017-08-10T15:03:22.055Z,24.43